sensor_id;sensor_type;location;lat;lon;timestamp;P1;durP1;ratioP1;P2;durP2;ratioP2
47531;SDS011;33273;52.254;7.988;2022-12-07T00:01:25;19.17;;;13.05;;
47531;SDS011;33273;52.254;7.988;2022-12-07T00:03:57;19.08;;;12.70;;
47531;SDS011;33273;52.254;7.988;2022-12-07T00:06:30;21.60;;;13.48;;
47531;SDS011;33273;52.254;7.988;2022-12-07T00:08:57;19.10;;;11.88;;
47531;SDS011;33273;52.254;7.988;2022-12-07T00:11:23;18.02;;;11.65;;
47531;SDS011;33273;52.254;7.988;2022-12-07T00:13:56;21.95;;;11.98;;
47531;SDS011;33273;52.254;7.988;2022-12-07T00:16:25;17.40;;;11.25;;
47531;SDS011;33273;52.254;7.988;2022-12-07T00:18:52;17.73;;;10.88;;
47531;SDS011;33273;52.254;7.988;2022-12-07T00:21:19;17.08;;;10.88;;
47531;SDS011;33273;52.254;7.988;2022-12-07T00:23:47;19.17;;;12.07;;
47531;SDS011;33273;52.254;7.988;2022-12-07T00:26:21;16.73;;;10.25;;
47531;SDS011;33273;52.254;7.988;2022-12-07T00:28:53;19.13;;;10.23;;
47531;SDS011;33273;52.254;7.988;2022-12-07T00:31:21;15.50;;;10.35;;
47531;SDS011;33273;52.254;7.988;2022-12-07T00:33:49;19.20;;;10.70;;
47531;SDS011;33273;52.254;7.988;2022-12-07T00:38:46;14.95;;;8.90;;
47531;SDS011;33273;52.254;7.988;2022-12-07T00:41:13;16.40;;;9.80;;
47531;SDS011;33273;52.254;7.988;2022-12-07T00:43:41;14.32;;;9.15;;
47531;SDS011;33273;52.254;7.988;2022-12-07T00:46:08;17.02;;;9.45;;
47531;SDS011;33273;52.254;7.988;2022-12-07T00:48:34;16.00;;;9.77;;
47531;SDS011;33273;52.254;7.988;2022-12-07T00:51:00;15.15;;;8.57;;
47531;SDS011;33273;52.254;7.988;2022-12-07T00:53:26;15.65;;;8.43;;
47531;SDS011;33273;52.254;7.988;2022-12-07T00:55:53;14.90;;;9.35;;
47531;SDS011;33273;52.254;7.988;2022-12-07T00:58:21;15.95;;;8.43;;
47531;SDS011;33273;52.254;7.988;2022-12-07T01:03:14;12.30;;;7.18;;
47531;SDS011;33273;52.254;7.988;2022-12-07T01:05:48;13.55;;;8.43;;
47531;SDS011;33273;52.254;7.988;2022-12-07T01:08:19;13.85;;;8.50;;
47531;SDS011;33273;52.254;7.988;2022-12-07T01:10:46;13.32;;;8.63;;
47531;SDS011;33273;52.254;7.988;2022-12-07T01:13:12;13.57;;;8.57;;
47531;SDS011;33273;52.254;7.988;2022-12-07T01:15:39;14.57;;;7.40;;
47531;SDS011;33273;52.254;7.988;2022-12-07T01:18:05;15.52;;;7.90;;
47531;SDS011;33273;52.254;7.988;2022-12-07T01:20:31;14.25;;;8.05;;
47531;SDS011;33273;52.254;7.988;2022-12-07T01:22:57;16.83;;;8.10;;
47531;SDS011;33273;52.254;7.988;2022-12-07T01:25:24;13.45;;;8.43;;
47531;SDS011;33273;52.254;7.988;2022-12-07T01:27:50;12.57;;;8.27;;
47531;SDS011;33273;52.254;7.988;2022-12-07T01:30:16;14.93;;;8.97;;
47531;SDS011;33273;52.254;7.988;2022-12-07T01:32:42;13.57;;;9.10;;
47531;SDS011;33273;52.254;7.988;2022-12-07T01:35:08;11.15;;;7.95;;
47531;SDS011;33273;52.254;7.988;2022-12-07T01:37:35;17.10;;;10.43;;
47531;SDS011;33273;52.254;7.988;2022-12-07T01:40:02;13.13;;;8.63;;
47531;SDS011;33273;52.254;7.988;2022-12-07T01:42:29;13.60;;;7.88;;
47531;SDS011;33273;52.254;7.988;2022-12-07T01:45:34;11.93;;;7.32;;
47531;SDS011;33273;52.254;7.988;2022-12-07T01:47:56;14.40;;;8.15;;
47531;SDS011;33273;52.254;7.988;2022-12-07T01:50:24;13.10;;;8.48;;
47531;SDS011;33273;52.254;7.988;2022-12-07T01:52:54;12.93;;;7.28;;
47531;SDS011;33273;52.254;7.988;2022-12-07T01:55:21;15.45;;;8.50;;
47531;SDS011;33273;52.254;7.988;2022-12-07T01:57:49;15.32;;;8.15;;
47531;SDS011;33273;52.254;7.988;2022-12-07T02:00:18;14.13;;;7.55;;
47531;SDS011;33273;52.254;7.988;2022-12-07T02:02:59;13.35;;;7.88;;
47531;SDS011;33273;52.254;7.988;2022-12-07T02:05:34;13.50;;;7.75;;
47531;SDS011;33273;52.254;7.988;2022-12-07T02:08:02;10.60;;;7.13;;
47531;SDS011;33273;52.254;7.988;2022-12-07T02:13:06;12.68;;;7.57;;
47531;SDS011;33273;52.254;7.988;2022-12-07T02:20:55;12.90;;;8.00;;
47531;SDS011;33273;52.254;7.988;2022-12-07T02:24:02;18.52;;;7.70;;
47531;SDS011;33273;52.254;7.988;2022-12-07T02:29:38;12.70;;;6.65;;
47531;SDS011;33273;52.254;7.988;2022-12-07T02:34:49;9.68;;;5.45;;
47531;SDS011;33273;52.254;7.988;2022-12-07T02:40:19;9.57;;;5.45;;
47531;SDS011;33273;52.254;7.988;2022-12-07T02:42:58;10.52;;;4.93;;
47531;SDS011;33273;52.254;7.988;2022-12-07T02:45:31;9.13;;;4.35;;
47531;SDS011;33273;52.254;7.988;2022-12-07T02:48:01;9.88;;;4.28;;
47531;SDS011;33273;52.254;7.988;2022-12-07T02:50:29;8.93;;;4.55;;
47531;SDS011;33273;52.254;7.988;2022-12-07T02:52:55;10.57;;;4.47;;
47531;SDS011;33273;52.254;7.988;2022-12-07T02:55:23;8.15;;;4.30;;
47531;SDS011;33273;52.254;7.988;2022-12-07T02:58:14;10.57;;;4.70;;
47531;SDS011;33273;52.254;7.988;2022-12-07T03:01:02;9.55;;;4.60;;
47531;SDS011;33273;52.254;7.988;2022-12-07T03:03:46;10.93;;;4.50;;
47531;SDS011;33273;52.254;7.988;2022-12-07T03:06:28;11.68;;;4.55;;
47531;SDS011;33273;52.254;7.988;2022-12-07T03:11:47;7.28;;;4.07;;
47531;SDS011;33273;52.254;7.988;2022-12-07T03:14:24;10.68;;;4.30;;
47531;SDS011;33273;52.254;7.988;2022-12-07T03:17:03;9.98;;;4.43;;
47531;SDS011;33273;52.254;7.988;2022-12-07T03:19:39;6.75;;;4.20;;
47531;SDS011;33273;52.254;7.988;2022-12-07T03:22:11;9.50;;;4.50;;
47531;SDS011;33273;52.254;7.988;2022-12-07T03:24:40;8.38;;;4.78;;
47531;SDS011;33273;52.254;7.988;2022-12-07T03:27:17;8.13;;;3.85;;
47531;SDS011;33273;52.254;7.988;2022-12-07T03:32:44;9.30;;;4.40;;
47531;SDS011;33273;52.254;7.988;2022-12-07T03:43:15;10.68;;;4.43;;
47531;SDS011;33273;52.254;7.988;2022-12-07T03:45:43;7.78;;;4.03;;
47531;SDS011;33273;52.254;7.988;2022-12-07T03:54:02;5.70;;;3.80;;
47531;SDS011;33273;52.254;7.988;2022-12-07T03:56:23;7.97;;;3.65;;
47531;SDS011;33273;52.254;7.988;2022-12-07T03:58:50;8.52;;;3.60;;
47531;SDS011;33273;52.254;7.988;2022-12-07T04:01:19;13.18;;;4.90;;
47531;SDS011;33273;52.254;7.988;2022-12-07T04:03:47;6.32;;;3.40;;
47531;SDS011;33273;52.254;7.988;2022-12-07T04:06:13;8.48;;;3.42;;
47531;SDS011;33273;52.254;7.988;2022-12-07T04:08:39;6.95;;;3.35;;
47531;SDS011;33273;52.254;7.988;2022-12-07T04:11:05;7.47;;;3.90;;
47531;SDS011;33273;52.254;7.988;2022-12-07T04:13:31;9.05;;;3.58;;
47531;SDS011;33273;52.254;7.988;2022-12-07T04:16:17;10.18;;;3.83;;
47531;SDS011;33273;52.254;7.988;2022-12-07T04:18:43;7.83;;;3.10;;
47531;SDS011;33273;52.254;7.988;2022-12-07T04:21:09;8.43;;;4.07;;
47531;SDS011;33273;52.254;7.988;2022-12-07T04:23:35;5.43;;;3.47;;
47531;SDS011;33273;52.254;7.988;2022-12-07T04:26:00;9.27;;;3.60;;
47531;SDS011;33273;52.254;7.988;2022-12-07T04:28:26;6.60;;;2.80;;
47531;SDS011;33273;52.254;7.988;2022-12-07T04:30:52;12.57;;;3.30;;
47531;SDS011;33273;52.254;7.988;2022-12-07T04:33:18;6.22;;;2.83;;
47531;SDS011;33273;52.254;7.988;2022-12-07T04:35:44;7.73;;;3.10;;
47531;SDS011;33273;52.254;7.988;2022-12-07T04:38:10;9.77;;;4.00;;
47531;SDS011;33273;52.254;7.988;2022-12-07T04:40:35;9.07;;;2.97;;
47531;SDS011;33273;52.254;7.988;2022-12-07T04:43:01;9.07;;;3.17;;
47531;SDS011;33273;52.254;7.988;2022-12-07T04:45:27;6.95;;;2.90;;
47531;SDS011;33273;52.254;7.988;2022-12-07T04:47:53;7.60;;;3.17;;
47531;SDS011;33273;52.254;7.988;2022-12-07T04:50:20;7.50;;;3.25;;
47531;SDS011;33273;52.254;7.988;2022-12-07T04:52:46;6.85;;;2.67;;
47531;SDS011;33273;52.254;7.988;2022-12-07T04:55:11;5.77;;;2.90;;
47531;SDS011;33273;52.254;7.988;2022-12-07T04:57:37;7.50;;;2.93;;
47531;SDS011;33273;52.254;7.988;2022-12-07T05:00:03;9.15;;;3.22;;
47531;SDS011;33273;52.254;7.988;2022-12-07T05:02:30;4.38;;;2.55;;
47531;SDS011;33273;52.254;7.988;2022-12-07T05:04:56;7.40;;;3.03;;
47531;SDS011;33273;52.254;7.988;2022-12-07T05:07:22;6.70;;;3.40;;
47531;SDS011;33273;52.254;7.988;2022-12-07T05:09:48;4.27;;;2.47;;
47531;SDS011;33273;52.254;7.988;2022-12-07T05:12:13;8.30;;;2.97;;
47531;SDS011;33273;52.254;7.988;2022-12-07T05:14:39;8.23;;;2.77;;
47531;SDS011;33273;52.254;7.988;2022-12-07T05:17:05;8.30;;;2.93;;
47531;SDS011;33273;52.254;7.988;2022-12-07T05:19:31;6.90;;;4.03;;
47531;SDS011;33273;52.254;7.988;2022-12-07T05:21:57;6.63;;;2.50;;
47531;SDS011;33273;52.254;7.988;2022-12-07T05:24:23;4.70;;;2.40;;
47531;SDS011;33273;52.254;7.988;2022-12-07T05:26:49;5.38;;;2.95;;
47531;SDS011;33273;52.254;7.988;2022-12-07T05:29:15;11.97;;;2.83;;
47531;SDS011;33273;52.254;7.988;2022-12-07T05:31:42;5.47;;;2.75;;
47531;SDS011;33273;52.254;7.988;2022-12-07T05:34:09;5.50;;;2.45;;
47531;SDS011;33273;52.254;7.988;2022-12-07T05:39:02;5.35;;;2.78;;
47531;SDS011;33273;52.254;7.988;2022-12-07T05:41:29;6.85;;;2.72;;
47531;SDS011;33273;52.254;7.988;2022-12-07T05:44:14;5.22;;;2.53;;
47531;SDS011;33273;52.254;7.988;2022-12-07T05:46:40;5.60;;;2.88;;
47531;SDS011;33273;52.254;7.988;2022-12-07T05:49:06;9.43;;;2.75;;
47531;SDS011;33273;52.254;7.988;2022-12-07T05:51:32;8.10;;;2.97;;
47531;SDS011;33273;52.254;7.988;2022-12-07T05:53:58;7.13;;;3.00;;
47531;SDS011;33273;52.254;7.988;2022-12-07T05:56:23;7.70;;;2.80;;
47531;SDS011;33273;52.254;7.988;2022-12-07T05:58:51;9.18;;;3.55;;
47531;SDS011;33273;52.254;7.988;2022-12-07T06:01:36;5.32;;;2.45;;
47531;SDS011;33273;52.254;7.988;2022-12-07T06:04:01;8.23;;;2.67;;
47531;SDS011;33273;52.254;7.988;2022-12-07T06:06:27;5.68;;;2.88;;
47531;SDS011;33273;52.254;7.988;2022-12-07T06:08:53;3.67;;;2.05;;
47531;SDS011;33273;52.254;7.988;2022-12-07T06:11:19;5.63;;;2.22;;
47531;SDS011;33273;52.254;7.988;2022-12-07T06:14:04;8.57;;;2.72;;
47531;SDS011;33273;52.254;7.988;2022-12-07T06:16:30;6.75;;;2.42;;
47531;SDS011;33273;52.254;7.988;2022-12-07T06:18:55;9.73;;;2.80;;
47531;SDS011;33273;52.254;7.988;2022-12-07T06:21:21;8.55;;;2.80;;
47531;SDS011;33273;52.254;7.988;2022-12-07T06:23:47;7.87;;;2.53;;
47531;SDS011;33273;52.254;7.988;2022-12-07T06:26:13;5.33;;;3.00;;
47531;SDS011;33273;52.254;7.988;2022-12-07T06:28:40;6.03;;;2.40;;
47531;SDS011;33273;52.254;7.988;2022-12-07T06:31:06;6.75;;;2.20;;
47531;SDS011;33273;52.254;7.988;2022-12-07T06:33:32;6.15;;;2.25;;
47531;SDS011;33273;52.254;7.988;2022-12-07T06:35:58;8.77;;;2.88;;
47531;SDS011;33273;52.254;7.988;2022-12-07T06:38:24;7.10;;;2.30;;
47531;SDS011;33273;52.254;7.988;2022-12-07T06:40:50;4.55;;;2.00;;
47531;SDS011;33273;52.254;7.988;2022-12-07T06:43:16;10.30;;;2.60;;
47531;SDS011;33273;52.254;7.988;2022-12-07T06:45:42;5.27;;;2.23;;
47531;SDS011;33273;52.254;7.988;2022-12-07T06:48:08;5.17;;;1.90;;
47531;SDS011;33273;52.254;7.988;2022-12-07T06:50:34;8.57;;;2.47;;
47531;SDS011;33273;52.254;7.988;2022-12-07T06:53:00;8.33;;;3.10;;
47531;SDS011;33273;52.254;7.988;2022-12-07T06:55:26;3.57;;;1.90;;
47531;SDS011;33273;52.254;7.988;2022-12-07T06:57:51;4.03;;;1.60;;
47531;SDS011;33273;52.254;7.988;2022-12-07T07:00:17;6.10;;;2.67;;
47531;SDS011;33273;52.254;7.988;2022-12-07T07:02:44;7.22;;;2.15;;
47531;SDS011;33273;52.254;7.988;2022-12-07T07:05:09;6.97;;;2.03;;
47531;SDS011;33273;52.254;7.988;2022-12-07T07:07:35;8.43;;;3.83;;
47531;SDS011;33273;52.254;7.988;2022-12-07T07:10:01;8.80;;;2.70;;
47531;SDS011;33273;52.254;7.988;2022-12-07T07:12:27;5.70;;;2.15;;
47531;SDS011;33273;52.254;7.988;2022-12-07T07:14:53;7.90;;;2.13;;
47531;SDS011;33273;52.254;7.988;2022-12-07T07:17:19;11.00;;;2.40;;
47531;SDS011;33273;52.254;7.988;2022-12-07T07:19:46;3.53;;;1.92;;
47531;SDS011;33273;52.254;7.988;2022-12-07T07:24:37;6.25;;;2.00;;
47531;SDS011;33273;52.254;7.988;2022-12-07T07:27:03;5.43;;;2.60;;
47531;SDS011;33273;52.254;7.988;2022-12-07T07:29:29;12.03;;;3.17;;
47531;SDS011;33273;52.254;7.988;2022-12-07T07:31:55;4.50;;;2.20;;
47531;SDS011;33273;52.254;7.988;2022-12-07T07:34:21;6.70;;;2.30;;
47531;SDS011;33273;52.254;7.988;2022-12-07T07:36:47;3.67;;;1.93;;
47531;SDS011;33273;52.254;7.988;2022-12-07T07:39:13;8.67;;;2.37;;
47531;SDS011;33273;52.254;7.988;2022-12-07T07:41:39;9.32;;;2.28;;
47531;SDS011;33273;52.254;7.988;2022-12-07T07:44:11;5.60;;;1.98;;
47531;SDS011;33273;52.254;7.988;2022-12-07T07:46:37;5.65;;;2.13;;
47531;SDS011;33273;52.254;7.988;2022-12-07T07:49:03;6.90;;;2.13;;
47531;SDS011;33273;52.254;7.988;2022-12-07T07:51:29;10.23;;;3.07;;
47531;SDS011;33273;52.254;7.988;2022-12-07T07:53:55;6.23;;;2.30;;
47531;SDS011;33273;52.254;7.988;2022-12-07T07:56:20;5.05;;;2.08;;
47531;SDS011;33273;52.254;7.988;2022-12-07T07:58:46;4.50;;;2.33;;
47531;SDS011;33273;52.254;7.988;2022-12-07T08:01:12;5.20;;;1.90;;
47531;SDS011;33273;52.254;7.988;2022-12-07T08:03:40;6.05;;;1.80;;
47531;SDS011;33273;52.254;7.988;2022-12-07T08:06:06;4.53;;;2.10;;
47531;SDS011;33273;52.254;7.988;2022-12-07T08:08:31;10.47;;;2.70;;
47531;SDS011;33273;52.254;7.988;2022-12-07T08:10:57;14.97;;;3.03;;
47531;SDS011;33273;52.254;7.988;2022-12-07T08:13:26;6.93;;;1.90;;
47531;SDS011;33273;52.254;7.988;2022-12-07T08:18:19;6.60;;;2.30;;
47531;SDS011;33273;52.254;7.988;2022-12-07T08:20:45;8.00;;;2.38;;
47531;SDS011;33273;52.254;7.988;2022-12-07T08:23:11;6.93;;;1.93;;
47531;SDS011;33273;52.254;7.988;2022-12-07T08:25:37;6.60;;;2.10;;
47531;SDS011;33273;52.254;7.988;2022-12-07T08:28:03;4.82;;;2.15;;
47531;SDS011;33273;52.254;7.988;2022-12-07T08:30:29;5.97;;;1.90;;
47531;SDS011;33273;52.254;7.988;2022-12-07T08:32:56;8.02;;;2.15;;
47531;SDS011;33273;52.254;7.988;2022-12-07T08:35:22;6.32;;;2.22;;
47531;SDS011;33273;52.254;7.988;2022-12-07T08:37:49;7.43;;;2.05;;
47531;SDS011;33273;52.254;7.988;2022-12-07T08:40:14;8.47;;;2.13;;
47531;SDS011;33273;52.254;7.988;2022-12-07T08:42:41;6.38;;;2.20;;
47531;SDS011;33273;52.254;7.988;2022-12-07T08:45:13;6.00;;;2.08;;
47531;SDS011;33273;52.254;7.988;2022-12-07T08:47:41;4.90;;;1.88;;
47531;SDS011;33273;52.254;7.988;2022-12-07T08:50:17;9.55;;;2.30;;
47531;SDS011;33273;52.254;7.988;2022-12-07T08:52:44;6.93;;;1.88;;
47531;SDS011;33273;52.254;7.988;2022-12-07T08:55:12;9.15;;;3.67;;
47531;SDS011;33273;52.254;7.988;2022-12-07T08:57:38;7.07;;;1.90;;
47531;SDS011;33273;52.254;7.988;2022-12-07T09:00:05;5.32;;;2.15;;
47531;SDS011;33273;52.254;7.988;2022-12-07T09:02:34;7.03;;;2.10;;
47531;SDS011;33273;52.254;7.988;2022-12-07T09:05:00;7.88;;;2.40;;
47531;SDS011;33273;52.254;7.988;2022-12-07T09:07:26;5.03;;;2.00;;
47531;SDS011;33273;52.254;7.988;2022-12-07T09:09:52;6.10;;;1.92;;
47531;SDS011;33273;52.254;7.988;2022-12-07T09:12:18;6.73;;;2.60;;
47531;SDS011;33273;52.254;7.988;2022-12-07T09:14:44;8.93;;;2.50;;
47531;SDS011;33273;52.254;7.988;2022-12-07T09:17:10;9.60;;;2.80;;
47531;SDS011;33273;52.254;7.988;2022-12-07T09:19:38;7.90;;;2.10;;
47531;SDS011;33273;52.254;7.988;2022-12-07T09:24:30;8.15;;;2.08;;
47531;SDS011;33273;52.254;7.988;2022-12-07T09:26:57;6.90;;;2.38;;
47531;SDS011;33273;52.254;7.988;2022-12-07T09:29:23;8.02;;;1.98;;
47531;SDS011;33273;52.254;7.988;2022-12-07T09:31:50;9.80;;;2.10;;
47531;SDS011;33273;52.254;7.988;2022-12-07T09:34:17;5.38;;;1.92;;
47531;SDS011;33273;52.254;7.988;2022-12-07T09:36:43;7.78;;;2.22;;
47531;SDS011;33273;52.254;7.988;2022-12-07T09:39:09;4.78;;;2.30;;
47531;SDS011;33273;52.254;7.988;2022-12-07T09:41:37;4.90;;;2.10;;
47531;SDS011;33273;52.254;7.988;2022-12-07T09:44:08;6.80;;;2.08;;
47531;SDS011;33273;52.254;7.988;2022-12-07T09:46:38;4.03;;;2.03;;
47531;SDS011;33273;52.254;7.988;2022-12-07T09:49:09;7.13;;;2.42;;
47531;SDS011;33273;52.254;7.988;2022-12-07T09:51:39;6.95;;;2.55;;
47531;SDS011;33273;52.254;7.988;2022-12-07T09:54:06;10.68;;;2.60;;
47531;SDS011;33273;52.254;7.988;2022-12-07T09:56:33;5.78;;;2.58;;
47531;SDS011;33273;52.254;7.988;2022-12-07T09:59:00;8.05;;;2.80;;
47531;SDS011;33273;52.254;7.988;2022-12-07T10:01:29;6.72;;;2.55;;
47531;SDS011;33273;52.254;7.988;2022-12-07T10:04:20;10.65;;;2.60;;
47531;SDS011;33273;52.254;7.988;2022-12-07T10:06:46;8.45;;;2.40;;
47531;SDS011;33273;52.254;7.988;2022-12-07T10:09:14;7.38;;;3.08;;
47531;SDS011;33273;52.254;7.988;2022-12-07T10:14:32;6.15;;;2.28;;
47531;SDS011;33273;52.254;7.988;2022-12-07T10:17:00;6.57;;;2.20;;
47531;SDS011;33273;52.254;7.988;2022-12-07T10:19:30;9.57;;;2.42;;
47531;SDS011;33273;52.254;7.988;2022-12-07T10:22:07;13.40;;;2.65;;
47531;SDS011;33273;52.254;7.988;2022-12-07T10:24:36;5.75;;;2.20;;
47531;SDS011;33273;52.254;7.988;2022-12-07T10:27:04;8.70;;;2.25;;
47531;SDS011;33273;52.254;7.988;2022-12-07T10:34:41;5.28;;;2.15;;
47531;SDS011;33273;52.254;7.988;2022-12-07T10:39:45;5.63;;;2.17;;
47531;SDS011;33273;52.254;7.988;2022-12-07T10:42:19;6.50;;;2.15;;
47531;SDS011;33273;52.254;7.988;2022-12-07T10:44:50;10.23;;;2.90;;
47531;SDS011;33273;52.254;7.988;2022-12-07T10:50:16;9.13;;;2.33;;
47531;SDS011;33273;52.254;7.988;2022-12-07T11:04:43;6.55;;;2.38;;
47531;SDS011;33273;52.254;7.988;2022-12-07T11:09:24;10.13;;;2.00;;
47531;SDS011;33273;52.254;7.988;2022-12-07T11:15:04;6.72;;;2.25;;
47531;SDS011;33273;52.254;7.988;2022-12-07T11:25:36;9.13;;;2.50;;
47531;SDS011;33273;52.254;7.988;2022-12-07T11:33:37;6.50;;;2.00;;
47531;SDS011;33273;52.254;7.988;2022-12-07T11:36:17;5.80;;;1.90;;
47531;SDS011;33273;52.254;7.988;2022-12-07T11:39:20;5.72;;;2.20;;
47531;SDS011;33273;52.254;7.988;2022-12-07T11:42:21;5.88;;;2.55;;
47531;SDS011;33273;52.254;7.988;2022-12-07T11:44:53;4.47;;;1.73;;
47531;SDS011;33273;52.254;7.988;2022-12-07T11:49:54;6.75;;;2.05;;
47531;SDS011;33273;52.254;7.988;2022-12-07T11:52:24;4.47;;;1.60;;
47531;SDS011;33273;52.254;7.988;2022-12-07T11:54:52;8.10;;;2.28;;
47531;SDS011;33273;52.254;7.988;2022-12-07T11:57:32;6.53;;;1.98;;
47531;SDS011;33273;52.254;7.988;2022-12-07T12:00:04;5.65;;;1.90;;
47531;SDS011;33273;52.254;7.988;2022-12-07T12:05:22;9.63;;;2.13;;
47531;SDS011;33273;52.254;7.988;2022-12-07T12:07:59;5.18;;;1.70;;
47531;SDS011;33273;52.254;7.988;2022-12-07T12:10:45;5.18;;;1.67;;
47531;SDS011;33273;52.254;7.988;2022-12-07T12:21:47;5.97;;;2.30;;
47531;SDS011;33273;52.254;7.988;2022-12-07T12:24:21;3.72;;;1.60;;
47531;SDS011;33273;52.254;7.988;2022-12-07T12:26:52;8.60;;;1.90;;
47531;SDS011;33273;52.254;7.988;2022-12-07T12:29:28;4.68;;;1.70;;
47531;SDS011;33273;52.254;7.988;2022-12-07T12:37:55;10.43;;;2.30;;
47531;SDS011;33273;52.254;7.988;2022-12-07T12:42:58;7.00;;;1.92;;
47531;SDS011;33273;52.254;7.988;2022-12-07T12:47:52;5.88;;;1.80;;
47531;SDS011;33273;52.254;7.988;2022-12-07T12:50:30;11.57;;;1.90;;
47531;SDS011;33273;52.254;7.988;2022-12-07T12:56:01;5.65;;;2.28;;
47531;SDS011;33273;52.254;7.988;2022-12-07T13:01:43;4.55;;;1.48;;
47531;SDS011;33273;52.254;7.988;2022-12-07T13:04:17;3.45;;;1.60;;
47531;SDS011;33273;52.254;7.988;2022-12-07T13:06:49;5.28;;;1.80;;
47531;SDS011;33273;52.254;7.988;2022-12-07T13:09:20;7.05;;;2.20;;
47531;SDS011;33273;52.254;7.988;2022-12-07T13:11:56;3.28;;;1.67;;
47531;SDS011;33273;52.254;7.988;2022-12-07T13:19:58;5.50;;;1.80;;
47531;SDS011;33273;52.254;7.988;2022-12-07T13:25:07;7.50;;;2.00;;
47531;SDS011;33273;52.254;7.988;2022-12-07T13:27:37;8.02;;;1.90;;
47531;SDS011;33273;52.254;7.988;2022-12-07T13:30:13;4.32;;;1.92;;
47531;SDS011;33273;52.254;7.988;2022-12-07T13:32:41;6.65;;;1.90;;
47531;SDS011;33273;52.254;7.988;2022-12-07T13:37:53;4.57;;;1.95;;
47531;SDS011;33273;52.254;7.988;2022-12-07T13:40:19;10.80;;;1.83;;
47531;SDS011;33273;52.254;7.988;2022-12-07T13:42:46;8.98;;;2.03;;
47531;SDS011;33273;52.254;7.988;2022-12-07T13:48:10;9.27;;;2.15;;
47531;SDS011;33273;52.254;7.988;2022-12-07T13:51:14;7.85;;;2.15;;
47531;SDS011;33273;52.254;7.988;2022-12-07T13:53:51;5.78;;;1.70;;
47531;SDS011;33273;52.254;7.988;2022-12-07T13:56:20;7.43;;;1.85;;
47531;SDS011;33273;52.254;7.988;2022-12-07T13:58:48;5.25;;;1.50;;
47531;SDS011;33273;52.254;7.988;2022-12-07T14:01:14;5.25;;;1.92;;
47531;SDS011;33273;52.254;7.988;2022-12-07T14:03:41;6.03;;;2.70;;
47531;SDS011;33273;52.254;7.988;2022-12-07T14:06:23;7.32;;;2.00;;
47531;SDS011;33273;52.254;7.988;2022-12-07T14:09:08;4.72;;;1.70;;
47531;SDS011;33273;52.254;7.988;2022-12-07T14:11:55;5.57;;;2.15;;
47531;SDS011;33273;52.254;7.988;2022-12-07T14:14:31;5.07;;;1.77;;
47531;SDS011;33273;52.254;7.988;2022-12-07T14:17:19;5.90;;;2.97;;
47531;SDS011;33273;52.254;7.988;2022-12-07T14:22:23;5.28;;;1.88;;
47531;SDS011;33273;52.254;7.988;2022-12-07T14:24:49;3.67;;;1.30;;
47531;SDS011;33273;52.254;7.988;2022-12-07T14:27:18;7.07;;;1.67;;
47531;SDS011;33273;52.254;7.988;2022-12-07T14:29:46;8.90;;;1.83;;
47531;SDS011;33273;52.254;7.988;2022-12-07T14:34:41;10.55;;;1.98;;
47531;SDS011;33273;52.254;7.988;2022-12-07T14:37:08;6.37;;;1.80;;
47531;SDS011;33273;52.254;7.988;2022-12-07T14:39:35;5.93;;;2.10;;
47531;SDS011;33273;52.254;7.988;2022-12-07T14:42:01;3.57;;;1.67;;
47531;SDS011;33273;52.254;7.988;2022-12-07T14:44:27;5.10;;;2.50;;
47531;SDS011;33273;52.254;7.988;2022-12-07T14:46:54;5.55;;;2.25;;
47531;SDS011;33273;52.254;7.988;2022-12-07T14:49:19;8.90;;;2.00;;
47531;SDS011;33273;52.254;7.988;2022-12-07T14:51:46;5.60;;;1.67;;
47531;SDS011;33273;52.254;7.988;2022-12-07T14:54:17;1.55;;;1.00;;
47531;SDS011;33273;52.254;7.988;2022-12-07T14:56:44;1.60;;;0.90;;
47531;SDS011;33273;52.254;7.988;2022-12-07T14:59:14;1.88;;;1.08;;
47531;SDS011;33273;52.254;7.988;2022-12-07T15:01:43;3.58;;;2.55;;
47531;SDS011;33273;52.254;7.988;2022-12-07T15:04:09;2.33;;;1.37;;
47531;SDS011;33273;52.254;7.988;2022-12-07T15:06:35;3.23;;;1.30;;
47531;SDS011;33273;52.254;7.988;2022-12-07T15:09:01;3.17;;;1.40;;
47531;SDS011;33273;52.254;7.988;2022-12-07T15:11:28;3.15;;;1.50;;
47531;SDS011;33273;52.254;7.988;2022-12-07T15:13:54;4.95;;;1.48;;
47531;SDS011;33273;52.254;7.988;2022-12-07T15:16:40;4.25;;;1.60;;
47531;SDS011;33273;52.254;7.988;2022-12-07T15:19:14;2.33;;;1.35;;
47531;SDS011;33273;52.254;7.988;2022-12-07T15:21:42;4.82;;;1.58;;
47531;SDS011;33273;52.254;7.988;2022-12-07T15:24:09;2.90;;;2.05;;
47531;SDS011;33273;52.254;7.988;2022-12-07T15:26:36;5.13;;;2.03;;
47531;SDS011;33273;52.254;7.988;2022-12-07T15:29:03;6.68;;;2.08;;
47531;SDS011;33273;52.254;7.988;2022-12-07T15:31:29;6.38;;;1.92;;
47531;SDS011;33273;52.254;7.988;2022-12-07T15:33:55;6.95;;;3.00;;
47531;SDS011;33273;52.254;7.988;2022-12-07T15:36:22;3.80;;;2.40;;
47531;SDS011;33273;52.254;7.988;2022-12-07T15:38:50;6.72;;;2.17;;
47531;SDS011;33273;52.254;7.988;2022-12-07T15:41:16;7.15;;;2.22;;
47531;SDS011;33273;52.254;7.988;2022-12-07T15:43:42;8.95;;;2.00;;
47531;SDS011;33273;52.254;7.988;2022-12-07T15:46:31;6.65;;;1.83;;
47531;SDS011;33273;52.254;7.988;2022-12-07T15:48:58;6.72;;;1.98;;
47531;SDS011;33273;52.254;7.988;2022-12-07T15:51:24;3.55;;;1.88;;
47531;SDS011;33273;52.254;7.988;2022-12-07T15:53:52;5.45;;;2.70;;
47531;SDS011;33273;52.254;7.988;2022-12-07T15:56:18;9.65;;;2.08;;
47531;SDS011;33273;52.254;7.988;2022-12-07T15:58:45;8.60;;;2.60;;
47531;SDS011;33273;52.254;7.988;2022-12-07T16:01:12;7.88;;;1.90;;
47531;SDS011;33273;52.254;7.988;2022-12-07T16:03:39;4.40;;;1.65;;
47531;SDS011;33273;52.254;7.988;2022-12-07T16:06:06;3.65;;;1.75;;
47531;SDS011;33273;52.254;7.988;2022-12-07T16:08:32;5.93;;;2.17;;
47531;SDS011;33273;52.254;7.988;2022-12-07T16:10:58;6.43;;;2.55;;
47531;SDS011;33273;52.254;7.988;2022-12-07T16:13:24;4.43;;;1.83;;
47531;SDS011;33273;52.254;7.988;2022-12-07T16:15:50;4.00;;;2.25;;
47531;SDS011;33273;52.254;7.988;2022-12-07T16:18:16;7.97;;;2.05;;
47531;SDS011;33273;52.254;7.988;2022-12-07T16:20:42;4.57;;;2.10;;
47531;SDS011;33273;52.254;7.988;2022-12-07T16:23:08;6.17;;;2.10;;
47531;SDS011;33273;52.254;7.988;2022-12-07T16:25:34;16.30;;;4.13;;
47531;SDS011;33273;52.254;7.988;2022-12-07T16:28:00;3.97;;;2.03;;
47531;SDS011;33273;52.254;7.988;2022-12-07T16:30:26;11.00;;;2.70;;
47531;SDS011;33273;52.254;7.988;2022-12-07T16:32:51;6.60;;;2.30;;
47531;SDS011;33273;52.254;7.988;2022-12-07T16:35:17;4.13;;;1.90;;
47531;SDS011;33273;52.254;7.988;2022-12-07T16:37:44;5.53;;;2.42;;
47531;SDS011;33273;52.254;7.988;2022-12-07T16:40:10;8.33;;;2.43;;
47531;SDS011;33273;52.254;7.988;2022-12-07T16:42:36;6.53;;;1.88;;
47531;SDS011;33273;52.254;7.988;2022-12-07T16:45:02;7.07;;;2.20;;
47531;SDS011;33273;52.254;7.988;2022-12-07T16:47:29;4.00;;;2.13;;
47531;SDS011;33273;52.254;7.988;2022-12-07T16:49:55;10.07;;;2.60;;
47531;SDS011;33273;52.254;7.988;2022-12-07T16:52:21;3.27;;;2.00;;
47531;SDS011;33273;52.254;7.988;2022-12-07T16:54:47;6.28;;;2.33;;
47531;SDS011;33273;52.254;7.988;2022-12-07T16:57:14;105.32;;;54.45;;
47531;SDS011;33273;52.254;7.988;2022-12-07T16:59:44;41.95;;;21.02;;
47531;SDS011;33273;52.254;7.988;2022-12-07T17:02:10;10.18;;;4.88;;
47531;SDS011;33273;52.254;7.988;2022-12-07T17:04:37;19.50;;;9.88;;
47531;SDS011;33273;52.254;7.988;2022-12-07T17:07:05;22.02;;;14.23;;
47531;SDS011;33273;52.254;7.988;2022-12-07T17:09:31;30.92;;;20.73;;
47531;SDS011;33273;52.254;7.988;2022-12-07T17:11:57;31.73;;;20.52;;
47531;SDS011;33273;52.254;7.988;2022-12-07T17:14:23;22.03;;;16.07;;
47531;SDS011;33273;52.254;7.988;2022-12-07T17:17:07;16.02;;;10.15;;
47531;SDS011;33273;52.254;7.988;2022-12-07T17:19:33;11.77;;;9.45;;